Time,TemperatureF,DewpointF,PressureIn,WindDirection,WindDirectionDegrees,WindSpeedMPH,WindSpeedGustMPH,Humidity,HourlyPrecipIn,Conditions,Clouds,dailyrainin,SoftwareType,DateUTC
2013-05-07 00:12:00,55.0,53.9,29.96,West,270,0.0,-999.0,96,-99.99,,,0.00,Acu-Link.com,2013-05-07 05:12:00,
2013-05-07 00:27:00,54.7,53.6,29.96,WNW,292,0.0,-999.0,96,-99.99,,,0.00,Acu-Link.com,2013-05-07 05:27:00,
2013-05-07 00:42:00,55.6,54.2,29.96,NW,315,4.7,-999.0,95,-99.99,,,0.00,Acu-Link.com,2013-05-07 05:42:00,
2013-05-07 00:58:00,54.0,53.2,29.96,West,270,0.0,-999.0,97,-99.99,,,0.00,Acu-Link.com,2013-05-07 05:58:00,
2013-05-07 01:13:00,53.8,53.2,29.96,WNW,292,0.0,-999.0,98,-99.99,,,0.00,Acu-Link.com,2013-05-07 06:13:00,
2013-05-07 01:28:00,52.5,52.0,29.96,NW,315,0.0,-999.0,98,-99.99,,,0.00,Acu-Link.com,2013-05-07 06:28:00,
2013-05-07 01:43:00,52.3,52.0,29.96,WNW,292,0.0,-999.0,99,-99.99,,,0.00,Acu-Link.com,2013-05-07 06:43:00,
2013-05-07 01:59:00,52.2,51.9,29.96,WNW,292,0.0,-999.0,99,-99.99,,,0.00,Acu-Link.com,2013-05-07 06:59:00,
2013-05-07 02:14:00,51.1,50.8,29.95,NNE,22,0.0,-999.0,99,-99.99,,,0.00,Acu-Link.com,2013-05-07 07:14:00,
2013-05-07 02:29:00,50.9,50.6,29.95,North,0,0.0,-999.0,99,-99.99,,,0.00,Acu-Link.com,2013-05-07 07:29:00,
2013-05-07 02:45:00,50.2,49.9,29.95,North,0,0.0,-999.0,99,-99.99,,,0.00,Acu-Link.com,2013-05-07 07:45:00,
2013-05-07 03:00:00,50.5,50.2,29.95,North,0,0.0,-999.0,99,-99.99,,,0.00,Acu-Link.com,2013-05-07 08:00:00,
2013-05-07 03:15:00,50.5,50.2,29.95,North,0,0.0,-999.0,99,-99.99,,,0.00,Acu-Link.com,2013-05-07 08:15:00,
2013-05-07 03:30:00,50.7,50.4,29.94,NNW,337,0.0,-999.0,99,-99.99,,,0.00,Acu-Link.com,2013-05-07 08:30:00,
2013-05-07 03:45:00,49.5,49.2,29.94,NNW,337,0.0,-999.0,99,-99.99,,,0.00,Acu-Link.com,2013-05-07 08:45:00,
2013-05-07 04:00:00,49.8,49.5,29.94,NNW,337,0.0,-999.0,99,-99.99,,,0.00,Acu-Link.com,2013-05-07 09:00:00,
2013-05-07 04:16:00,50.5,50.2,29.94,NNW,337,0.0,-999.0,99,-99.99,,,0.00,Acu-Link.com,2013-05-07 09:16:00,
2013-05-07 04:31:00,50.2,49.9,29.94,NNW,337,0.0,-999.0,99,-99.99,,,0.00,Acu-Link.com,2013-05-07 09:31:00,
2013-05-07 04:46:00,49.5,49.2,29.94,NW,315,0.0,-999.0,99,-99.99,,,0.00,Acu-Link.com,2013-05-07 09:46:00,
2013-05-07 05:01:00,49.1,48.8,29.94,NNW,337,0.0,-999.0,99,-99.99,,,0.00,Acu-Link.com,2013-05-07 10:01:00,
2013-05-07 05:17:00,48.6,48.3,29.94,ESE,112,0.0,-999.0,99,-99.99,,,0.00,Acu-Link.com,2013-05-07 10:17:00,
2013-05-07 05:32:00,47.5,47.2,29.94,East,90,0.0,-999.0,99,-99.99,,,0.00,Acu-Link.com,2013-05-07 10:32:00,
2013-05-07 05:47:00,47.1,46.8,29.94,East,90,0.0,-999.0,99,-99.99,,,0.00,Acu-Link.com,2013-05-07 10:47:00,
2013-05-07 06:02:00,46.9,46.6,29.94,East,90,0.0,-999.0,99,-99.99,,,0.00,Acu-Link.com,2013-05-07 11:02:00,
2013-05-07 06:18:00,46.8,46.5,29.95,ESE,112,0.0,-999.0,99,-99.99,,,0.00,Acu-Link.com,2013-05-07 11:18:00,
2013-05-07 06:33:00,48.0,47.7,29.96,ESE,112,0.0,-999.0,99,-99.99,,,0.00,Acu-Link.com,2013-05-07 11:33:00,
2013-05-07 06:48:00,49.1,48.8,29.96,ESE,112,0.0,-999.0,99,-99.99,,,0.00,Acu-Link.com,2013-05-07 11:48:00,
2013-05-07 07:04:00,50.2,49.9,29.96,ENE,67,0.0,-999.0,99,-99.99,,,0.00,Acu-Link.com,2013-05-07 12:04:00,
2013-05-07 07:19:00,51.1,50.8,29.96,West,270,0.0,-999.0,99,-99.99,,,0.00,Acu-Link.com,2013-05-07 12:19:00,
2013-05-07 07:34:00,52.2,51.9,29.97,NW,315,0.0,-999.0,99,-99.99,,,0.00,Acu-Link.com,2013-05-07 12:34:00,
2013-05-07 07:49:00,53.6,53.3,29.97,NNW,337,0.0,-999.0,99,-99.99,,,0.00,Acu-Link.com,2013-05-07 12:49:00,
2013-05-07 08:05:00,54.7,54.4,29.97,West,270,3.7,-999.0,99,-99.99,,,0.00,Acu-Link.com,2013-05-07 13:05:00,
2013-05-07 08:20:00,55.8,55.0,29.98,West,270,4.7,-999.0,97,-99.99,,,0.00,Acu-Link.com,2013-05-07 13:20:00,
2013-05-07 08:35:00,56.8,55.4,29.98,West,270,6.3,-999.0,95,-99.99,,,0.00,Acu-Link.com,2013-05-07 13:35:00,
2013-05-07 08:50:00,59.2,56.9,29.98,WNW,292,4.7,-999.0,92,-99.99,,,0.00,Acu-Link.com,2013-05-07 13:50:00,
2013-05-07 09:05:00,61.5,58.2,29.98,WNW,292,3.2,-999.0,89,-99.99,,,0.00,Acu-Link.com,2013-05-07 14:05:00,
2013-05-07 09:20:00,64.6,58.3,29.98,NNW,337,1.7,-999.0,80,-99.99,,,0.00,Acu-Link.com,2013-05-07 14:20:00,
2013-05-07 09:35:00,68.9,57.9,29.98,NNW,337,0.0,-999.0,68,-99.99,,,0.00,Acu-Link.com,2013-05-07 14:35:00,
2013-05-07 09:50:00,69.6,57.7,29.97,NNW,337,2.7,-999.0,66,-99.99,,,0.00,Acu-Link.com,2013-05-07 14:50:00,
2013-05-07 10:06:00,70.7,58.3,29.97,West,270,2.2,-999.0,65,-99.99,,,0.00,Acu-Link.com,2013-05-07 15:06:00,
2013-05-07 10:21:00,70.5,59.0,29.97,West,270,7.8,-999.0,67,-99.99,,,0.00,Acu-Link.com,2013-05-07 15:21:00,
2013-05-07 10:36:00,70.5,58.2,29.97,SSE,157,3.2,-999.0,65,-99.99,,,0.00,Acu-Link.com,2013-05-07 15:36:00,
2013-05-07 10:51:00,73.0,59.2,29.97,West,270,3.7,-999.0,62,-99.99,,,0.00,Acu-Link.com,2013-05-07 15:51:00,
2013-05-07 11:07:00,75.7,58.9,29.97,South,180,4.2,-999.0,56,-99.99,,,0.00,Acu-Link.com,2013-05-07 16:07:00,
2013-05-07 11:22:00,78.6,60.5,29.97,NNW,337,2.7,-999.0,54,-99.99,,,0.00,Acu-Link.com,2013-05-07 16:22:00,
2013-05-07 11:37:00,77.7,57.6,29.96,SSE,157,5.8,-999.0,50,-99.99,,,0.00,Acu-Link.com,2013-05-07 16:37:00,
2013-05-07 11:52:00,77.4,57.8,29.96,SSW,202,6.8,-999.0,51,-99.99,,,0.00,Acu-Link.com,2013-05-07 16:52:00,
2013-05-07 12:08:00,77.0,55.8,29.96,SSE,157,7.3,-999.0,48,-99.99,,,0.00,Acu-Link.com,2013-05-07 17:08:00,
2013-05-07 12:23:00,77.5,57.4,29.96,SSW,202,2.2,-999.0,50,-99.99,,,0.00,Acu-Link.com,2013-05-07 17:23:00,
2013-05-07 12:38:00,79.9,56.0,29.95,East,90,3.2,-999.0,44,-99.99,,,0.00,Acu-Link.com,2013-05-07 17:38:00,
2013-05-07 12:53:00,77.2,54.8,29.94,SSW,202,2.7,-999.0,46,-99.99,,,0.00,Acu-Link.com,2013-05-07 17:53:00,
2013-05-07 13:08:00,75.2,52.4,29.94,SE,135,4.7,-999.0,45,-99.99,,,0.00,Acu-Link.com,2013-05-07 18:08:00,
2013-05-07 13:23:00,77.5,51.9,29.94,WSW,247,3.2,-999.0,41,-99.99,,,0.00,Acu-Link.com,2013-05-07 18:23:00,
2013-05-07 13:38:00,80.2,52.3,29.94,South,180,5.8,-999.0,38,-99.99,,,0.00,Acu-Link.com,2013-05-07 18:38:00,
2013-05-07 13:53:00,81.3,51.8,29.93,SE,135,6.3,-999.0,36,-99.99,,,0.00,Acu-Link.com,2013-05-07 18:53:00,
2013-05-07 14:08:00,79.0,50.5,29.92,SSE,157,2.7,-999.0,37,-99.99,,,0.00,Acu-Link.com,2013-05-07 19:08:00,
2013-05-07 14:24:00,79.7,51.8,29.92,SSW,202,2.7,-999.0,38,-99.99,,,0.00,Acu-Link.com,2013-05-07 19:24:00,
2013-05-07 14:39:00,81.5,51.9,29.91,West,270,3.7,-999.0,36,-99.99,,,0.00,Acu-Link.com,2013-05-07 19:39:00,
2013-05-07 14:54:00,81.0,53.0,29.91,SW,225,3.7,-999.0,38,-99.99,,,0.00,Acu-Link.com,2013-05-07 19:54:00,
2013-05-07 15:09:00,79.0,51.9,29.91,SSW,202,8.3,-999.0,39,-99.99,,,0.00,Acu-Link.com,2013-05-07 20:09:00,
2013-05-07 17:26:00,81.7,51.4,29.88,North,0,4.2,-999.0,35,-99.99,,,0.00,Acu-Link.com,2013-05-07 22:26:00,
2013-05-07 17:41:00,81.9,49.9,29.88,South,180,2.2,-999.0,33,-99.99,,,0.00,Acu-Link.com,2013-05-07 22:41:00,
2013-05-07 17:56:00,77.2,51.0,29.87,SSW,202,5.8,-999.0,40,-99.99,,,0.00,Acu-Link.com,2013-05-07 22:56:00,
2013-05-07 18:11:00,76.5,50.4,29.87,ESE,112,9.4,-999.0,40,-99.99,,,0.00,Acu-Link.com,2013-05-07 23:11:00,
2013-05-07 18:26:00,75.0,49.0,29.87,SE,135,6.3,-999.0,40,-99.99,,,0.00,Acu-Link.com,2013-05-07 23:26:00,
2013-05-07 18:41:00,74.8,50.2,29.87,SSE,157,4.7,-999.0,42,-99.99,,,0.00,Acu-Link.com,2013-05-07 23:41:00,
2013-05-07 18:57:00,74.1,49.5,29.87,South,180,4.7,-999.0,42,-99.99,,,0.00,Acu-Link.com,2013-05-07 23:57:00,
2013-05-07 19:12:00,74.1,49.5,29.87,SSE,157,5.8,-999.0,42,-99.99,,,0.00,Acu-Link.com,2013-05-08 00:12:00,
2013-05-07 19:27:00,72.5,49.9,29.86,SSE,157,5.3,-999.0,45,-99.99,,,0.00,Acu-Link.com,2013-05-08 00:27:00,
2013-05-07 19:42:00,71.6,49.7,29.87,SE,135,5.8,-999.0,46,-99.99,,,0.00,Acu-Link.com,2013-05-08 00:42:00,
2013-05-07 20:04:00,69.1,50.2,29.86,SSE,157,2.7,-999.0,51,-99.99,,,0.00,Acu-Link.com,2013-05-08 01:04:00,
2013-05-07 20:20:00,67.6,50.4,29.87,ESE,112,2.7,-999.0,54,-99.99,,,0.00,Acu-Link.com,2013-05-08 01:20:00,
2013-05-07 20:36:00,65.3,51.1,29.86,ESE,112,0.0,-999.0,60,-99.99,,,0.00,Acu-Link.com,2013-05-08 01:36:00,
2013-05-07 20:51:00,63.7,50.0,29.86,ESE,112,0.0,-999.0,61,-99.99,,,0.00,Acu-Link.com,2013-05-08 01:51:00,
2013-05-07 21:06:00,62.2,49.9,29.86,East,90,0.0,-999.0,64,-99.99,,,0.00,Acu-Link.com,2013-05-08 02:06:00,
2013-05-07 21:21:00,61.3,49.8,29.86,East,90,0.0,-999.0,66,-99.99,,,0.00,Acu-Link.com,2013-05-08 02:21:00,
2013-05-07 21:37:00,60.8,49.8,29.86,East,90,0.0,-999.0,67,-99.99,,,0.00,Acu-Link.com,2013-05-08 02:37:00,
2013-05-07 21:52:00,60.8,50.2,29.87,East,90,0.0,-999.0,68,-99.99,,,0.00,Acu-Link.com,2013-05-08 02:52:00,
2013-05-07 22:07:00,59.7,49.1,29.87,ESE,112,0.0,-999.0,68,-99.99,,,0.00,Acu-Link.com,2013-05-08 03:07:00,
2013-05-07 22:22:00,59.9,49.3,29.87,ESE,112,0.0,-999.0,68,-99.99,,,0.00,Acu-Link.com,2013-05-08 03:22:00,
2013-05-07 22:37:00,59.7,49.1,29.87,ENE,67,2.7,-999.0,68,-99.99,,,0.00,Acu-Link.com,2013-05-08 03:37:00,
2013-05-07 22:52:00,58.6,49.2,29.87,East,90,0.0,-999.0,71,-99.99,,,0.00,Acu-Link.com,2013-05-08 03:52:00,
2013-05-07 23:08:00,59.0,48.8,29.87,ESE,112,2.2,-999.0,69,-99.99,,,0.00,Acu-Link.com,2013-05-08 04:08:00,
2013-05-07 23:23:00,58.8,48.7,29.87,ESE,112,0.0,-999.0,69,-99.99,,,0.00,Acu-Link.com,2013-05-08 04:23:00,
2013-05-07 23:38:00,58.5,48.7,29.87,ESE,112,0.0,-999.0,70,-99.99,,,0.00,Acu-Link.com,2013-05-08 04:38:00,
2013-05-07 23:54:00,58.6,48.8,29.87,South,180,1.7,-999.0,70,-99.99,,,0.00,Acu-Link.com,2013-05-08 04:54:00,